Meath Environmental Platform

Observations for Trim Patrick St

Time AQI Temp °C Hum % Pres Pa CO μg/m³ H₂S μg/m³ NO μg/m³ NO₂ μg/m³ O₃ μg/m³ SO₂ μg/m³ PM1 μg/m³ PM2.5 μg/m³ PM10 μg/m³
Friday 31 July 2026
15:22 2 25.5 39 68,975 0 0 2.01 9.42 57.53 5.83 2 7.1 7.81
15:20 2 25.4 40 68,975 0 0 1.91 9.69 44.58 5.63 2.86 7.82 8.6
15:19 2 25.3 40 68,975 0 0 1.93 9.45 60.1 5.32 2 7.84 8.63
15:18 2 25.2 41 68,975 0 0 1.88 9.9 62 5.82 2.86 8.55 9.4
15:17 2 25.1 41 68,971 0 0 1.82 9.88 58.82 6.3 2.86 8.55 9.41
15:16 2 25 41 68,971 0 0 1.5 9.33 60.13 5.99 2 7.75 8.53
15:15 2 24.9 42 68,969 0.01 0 1.7 10.54 69.44 5.66 2.86 8.5 9.35
15:14 2 24.8 41 68,934 0 0 1.68 9.73 66.13 6.57 2 6.98 7.68
15:13 2 24.7 41 68,924 0 0 1.69 14.9 60.92 5.23 2 7 7.7
15:12 2 24.6 41 68,937 0 0 1.66 9.89 64.37 6.01 2.86 7.74 8.52
15:11 2 24.5 41 68,928 0 0 2.03 8.99 59.36 4.84 2 6.97 7.67
15:10 2 24.4 41 68,916 0 0 2.09 10.74 64.59 5.32 2.86 7.74 8.52
15:09 2 24.3 42 68,934 0 0 2.07 9.59 54.89 5.2 2 7.7 8.48
15:08 2 24.3 41 68,926 0 0.22 2.07 19.88 64.86 5.39 2 6.98 7.68
15:07 2 24.2 41 68,914 0 0 2.14 9.25 60.78 5.52 2 7.76 8.53
15:06 2 24.1 41 68,900 0 0 2.16 15.35 66.11 4.88 2 6.97 7.67
15:04 2 23.9 41 68,896 0 0 2.12 8.9 63.61 4.61 2.86 9.34 10.28
15:01 2 23.7 42 68,865 0 0 1.78 9.64 62.25 5.02 2 6.89 7.58
14:57 2 23.3 43 68,861 0 0.41 1.87 21.43 64.09 4.07 2 6.86 7.55
14:56 2 23.2 44 68,835 0 0 1.87 9.7 60.07 4.37 2.86 7.55 8.31